createdAt,value
2024-02-16T00:00:31.536Z,1.6111111111111427
2024-02-16T00:01:31.780Z,1.6111111111111427
2024-02-16T00:02:31.863Z,1.6111111111111427
2024-02-16T00:03:31.782Z,1.6111111111111427
2024-02-16T00:04:31.485Z,1.6111111111111427
2024-02-16T00:05:31.644Z,1.6111111111111427
2024-02-16T00:06:31.758Z,1.6111111111111427
2024-02-16T00:07:31.697Z,1.6111111111111427
2024-02-16T00:08:31.510Z,1.6111111111111427
2024-02-16T00:09:32.772Z,1.6111111111111427
2024-02-16T00:10:32.659Z,1.6111111111111427
2024-02-16T00:11:32.747Z,1.6111111111111427
2024-02-16T00:12:32.733Z,1.6111111111111427
2024-02-16T00:13:32.861Z,1.6111111111111427
2024-02-16T00:14:32.692Z,1.6111111111111427
2024-02-16T00:15:32.762Z,1.6111111111111427
2024-02-16T00:16:32.640Z,1.6111111111111427
2024-02-16T00:17:32.672Z,1.6111111111111427
2024-02-16T00:18:32.981Z,1.6111111111111427
2024-02-16T00:19:32.691Z,1.6111111111111427
2024-02-16T00:20:32.665Z,1.6111111111111427
2024-02-16T00:21:32.839Z,1.6111111111111427
2024-02-16T00:22:32.687Z,1.6111111111111427
2024-02-16T00:23:32.706Z,1.7222222222222854
2024-02-16T00:24:32.910Z,1.7222222222222854
2024-02-16T00:25:32.766Z,1.7222222222222854
2024-02-16T00:26:32.790Z,1.7222222222222854
2024-02-16T00:27:32.908Z,1.7222222222222854
2024-02-16T00:28:32.766Z,1.7222222222222854
2024-02-16T00:29:32.794Z,1.6111111111111427
2024-02-16T00:30:32.779Z,1.7222222222222854
2024-02-16T00:31:32.884Z,1.7222222222222854
2024-02-16T00:32:32.797Z,1.7222222222222854
2024-02-16T00:33:32.962Z,1.7222222222222854
2024-02-16T00:34:33.676Z,1.7222222222222854
2024-02-16T00:35:32.748Z,1.7222222222222854
2024-02-16T00:36:32.928Z,1.7222222222222854
2024-02-16T00:37:32.783Z,1.7222222222222854
2024-02-16T00:38:32.737Z,1.7222222222222854
2024-02-16T00:39:32.841Z,1.7222222222222854
2024-02-16T00:40:36.179Z,1.7222222222222854
2024-02-16T00:41:32.742Z,1.7222222222222854
2024-02-16T00:42:32.789Z,1.7222222222222854
2024-02-16T00:43:32.864Z,1.7222222222222854
2024-02-16T00:44:32.779Z,1.7222222222222854
2024-02-16T00:45:32.927Z,1.7222222222222854
2024-02-16T00:46:32.791Z,1.7222222222222854
2024-02-16T00:47:32.840Z,1.7222222222222854
2024-02-16T00:48:32.954Z,1.7222222222222854
2024-02-16T00:49:32.894Z,1.7222222222222854
2024-02-16T00:50:32.763Z,1.7222222222222854
2024-02-16T00:51:32.823Z,1.7222222222222854
2024-02-16T00:52:32.775Z,1.7222222222222854
2024-02-16T00:53:32.803Z,1.7222222222222854
2024-02-16T00:54:32.863Z,1.7222222222222854
2024-02-16T00:55:32.828Z,1.7222222222222854
2024-02-16T00:56:32.808Z,1.7222222222222854
2024-02-16T00:57:32.849Z,1.7222222222222854
2024-02-16T00:58:32.814Z,1.7222222222222854
2024-02-16T00:59:32.768Z,1.7222222222222854
2024-02-16T01:00:32.932Z,1.7222222222222854
2024-02-16T01:01:32.803Z,1.7222222222222854
2024-02-16T01:02:32.834Z,1.7222222222222854
2024-02-16T01:03:32.833Z,1.7222222222222854
2024-02-16T01:04:32.630Z,1.7222222222222854
2024-02-16T01:05:32.688Z,1.7222222222222854
2024-02-16T01:06:32.667Z,1.7222222222222854
2024-02-16T01:07:32.775Z,1.7222222222222854
2024-02-16T01:08:32.644Z,1.7222222222222854
2024-02-16T01:09:32.832Z,1.7222222222222854
2024-02-16T01:10:32.669Z,1.7222222222222854
2024-02-16T01:11:32.843Z,1.7222222222222854
2024-02-16T01:12:32.670Z,1.7222222222222854
2024-02-16T01:13:32.715Z,1.7222222222222854
2024-02-16T01:14:32.801Z,1.7222222222222854
2024-02-16T01:15:32.853Z,1.7222222222222854
2024-02-16T01:16:32.638Z,1.7222222222222854
2024-02-16T01:17:32.730Z,1.7222222222222854
2024-02-16T01:18:32.864Z,1.7222222222222854
2024-02-16T01:19:32.764Z,1.7222222222222854
2024-02-16T01:20:32.658Z,1.7222222222222854
2024-02-16T01:21:32.663Z,1.7222222222222854
2024-02-16T01:22:32.809Z,1.7222222222222854
2024-02-16T01:23:32.729Z,1.7222222222222854
2024-02-16T01:24:32.800Z,1.7222222222222854
2024-02-16T01:25:32.739Z,1.7222222222222854
2024-02-16T01:26:32.696Z,1.7222222222222854
2024-02-16T01:27:32.694Z,1.7222222222222854
2024-02-16T01:28:32.731Z,1.7222222222222854
2024-02-16T01:29:32.774Z,1.7222222222222854
2024-02-16T01:30:32.906Z,1.7222222222222854
2024-02-16T01:31:32.810Z,1.7222222222222854
2024-02-16T01:32:32.754Z,1.7222222222222854
2024-02-16T01:33:32.737Z,1.7222222222222854
2024-02-16T01:34:32.999Z,1.7222222222222854
2024-02-16T01:35:32.671Z,1.7222222222222854
2024-02-16T01:36:32.662Z,1.7222222222222854
2024-02-16T01:37:32.657Z,1.7222222222222854
2024-02-16T01:38:32.624Z,1.7222222222222854
2024-02-16T01:39:32.810Z,1.7222222222222854
2024-02-16T01:40:32.682Z,1.7222222222222854
2024-02-16T01:41:32.708Z,1.7222222222222854
2024-02-16T01:42:32.824Z,1.7222222222222854
2024-02-16T01:43:32.786Z,1.7222222222222854
2024-02-16T01:44:32.637Z,1.7777777777778283
2024-02-16T01:45:32.748Z,1.7777777777778283
2024-02-16T01:46:32.654Z,1.7777777777778283
2024-02-16T01:47:32.728Z,1.7222222222222854
2024-02-16T01:48:32.837Z,1.7222222222222854
2024-02-16T01:49:32.763Z,1.7222222222222854
2024-02-16T01:50:35.240Z,1.7222222222222854
2024-02-16T01:51:32.784Z,1.7222222222222854
2024-02-16T01:52:32.688Z,1.7222222222222854
2024-02-16T01:53:32.697Z,1.7777777777778283
2024-02-16T01:54:32.759Z,1.7777777777778283
2024-02-16T01:55:32.761Z,1.7777777777778283
2024-02-16T01:56:32.768Z,1.7777777777778283
2024-02-16T01:57:32.938Z,1.7777777777778283
2024-02-16T01:58:32.615Z,1.7777777777778283
2024-02-16T01:59:32.742Z,1.7777777777778283
2024-02-16T02:00:32.750Z,1.7777777777778283
2024-02-16T02:01:32.779Z,1.7777777777778283
2024-02-16T02:02:32.638Z,1.7777777777778283
2024-02-16T02:03:32.781Z,1.7777777777778283
2024-02-16T02:04:32.861Z,1.7777777777778283
2024-02-16T02:05:32.814Z,1.7777777777778283
2024-02-16T02:06:32.796Z,1.7777777777778283
2024-02-16T02:07:32.964Z,1.7777777777778283
2024-02-16T02:08:32.687Z,1.7777777777778283
2024-02-16T02:09:32.824Z,1.7777777777778283
2024-02-16T02:10:32.690Z,1.7777777777778283
2024-02-16T02:11:32.771Z,1.7777777777778283
2024-02-16T02:12:32.793Z,1.7777777777778283
2024-02-16T02:13:32.699Z,1.7777777777778283
2024-02-16T02:14:32.794Z,1.7777777777778283
2024-02-16T02:15:35.215Z,1.7777777777778283
2024-02-16T02:16:40.784Z,1.7777777777778283
2024-02-16T02:17:32.770Z,1.7777777777778283
2024-02-16T02:18:32.789Z,1.8888888888889142
2024-02-16T02:19:33.060Z,1.7777777777778283
2024-02-16T02:20:32.758Z,1.7777777777778283
2024-02-16T02:21:32.795Z,1.8888888888889142
2024-02-16T02:22:32.684Z,1.8888888888889142
2024-02-16T02:23:32.671Z,1.8888888888889142
2024-02-16T02:24:32.828Z,1.8888888888889142
2024-02-16T02:25:32.719Z,1.8888888888889142
2024-02-16T02:26:32.617Z,1.8888888888889142
2024-02-16T02:27:32.970Z,1.8888888888889142
2024-02-16T02:28:32.688Z,1.8888888888889142
2024-02-16T02:29:32.680Z,1.8888888888889142
2024-02-16T02:30:32.829Z,1.8888888888889142
2024-02-16T02:31:32.706Z,1.8888888888889142
2024-02-16T02:32:32.836Z,1.8888888888889142
2024-02-16T02:33:32.822Z,1.8888888888889142
2024-02-16T02:34:32.829Z,1.8888888888889142
2024-02-16T02:35:32.628Z,1.8888888888889142
2024-02-16T02:36:32.869Z,1.8888888888889142
2024-02-16T02:37:32.633Z,1.8888888888889142
2024-02-16T02:38:32.642Z,1.8888888888889142
2024-02-16T02:39:32.741Z,1.8888888888889142
2024-02-16T02:40:32.651Z,2.000000000000057
2024-02-16T02:41:32.627Z,2.000000000000057
2024-02-16T02:42:32.802Z,2.000000000000057
2024-02-16T02:43:32.644Z,2.000000000000057
2024-02-16T02:44:32.728Z,2.000000000000057
2024-02-16T02:45:32.783Z,2.000000000000057
2024-02-16T02:46:32.661Z,2.000000000000057
2024-02-16T02:47:32.813Z,2.000000000000057
2024-02-16T02:48:33.006Z,2.000000000000057
2024-02-16T02:49:32.745Z,2.000000000000057
2024-02-16T02:50:32.729Z,2.000000000000057
2024-02-16T02:51:32.805Z,2.000000000000057
2024-02-16T02:52:32.756Z,2.000000000000057
2024-02-16T02:53:32.725Z,2.000000000000057
2024-02-16T02:54:32.731Z,2.000000000000057
2024-02-16T02:55:32.711Z,2.000000000000057
2024-02-16T02:56:32.801Z,2.000000000000057
2024-02-16T02:57:32.732Z,2.000000000000057
2024-02-16T02:58:32.623Z,2.000000000000057
2024-02-16T02:59:32.621Z,2.000000000000057
2024-02-16T03:00:32.928Z,2.000000000000057
2024-02-16T03:01:32.689Z,2.000000000000057
2024-02-16T03:02:32.649Z,2.000000000000057
2024-02-16T03:03:32.769Z,2.000000000000057
2024-02-16T03:04:32.739Z,2.000000000000057
2024-02-16T03:05:32.738Z,2.000000000000057
2024-02-16T03:06:32.859Z,2.000000000000057
2024-02-16T03:07:32.730Z,2.000000000000057
2024-02-16T03:08:32.665Z,2.000000000000057
2024-02-16T03:09:32.825Z,2.000000000000057
2024-02-16T03:10:32.728Z,2.000000000000057
2024-02-16T03:11:32.664Z,2.000000000000057
2024-02-16T03:12:32.671Z,2.000000000000057
2024-02-16T03:13:32.654Z,2.000000000000057
2024-02-16T03:14:32.788Z,2.000000000000057
2024-02-16T03:15:32.870Z,2.000000000000057
2024-02-16T03:16:32.724Z,2.000000000000057
2024-02-16T03:17:32.762Z,2.000000000000057
2024-02-16T03:18:33.088Z,2.000000000000057
2024-02-16T03:19:33.002Z,2.000000000000057
2024-02-16T03:20:32.763Z,2.000000000000057
2024-02-16T03:21:32.716Z,2.000000000000057
2024-02-16T03:22:32.643Z,2.000000000000057
2024-02-16T03:23:32.699Z,2.000000000000057
2024-02-16T03:24:32.774Z,2.000000000000057
2024-02-16T03:25:32.661Z,2.000000000000057
2024-02-16T03:26:32.680Z,2.000000000000057
2024-02-16T03:27:32.789Z,2.000000000000057
2024-02-16T03:28:32.650Z,2.000000000000057
2024-02-16T03:29:32.749Z,2.000000000000057
2024-02-16T03:30:32.755Z,2.000000000000057
2024-02-16T03:31:32.652Z,2.000000000000057
2024-02-16T03:32:32.780Z,2.000000000000057
2024-02-16T03:33:32.872Z,2.000000000000057
2024-02-16T03:34:32.793Z,2.000000000000057
2024-02-16T03:35:32.687Z,2.000000000000057
2024-02-16T03:36:32.864Z,2.000000000000057
2024-02-16T03:37:32.697Z,2.000000000000057
2024-02-16T03:38:32.696Z,2.000000000000057
2024-02-16T03:39:32.985Z,2.000000000000057
2024-02-16T03:40:32.638Z,2.000000000000057
2024-02-16T03:41:32.638Z,2.000000000000057
2024-02-16T03:42:32.768Z,2.000000000000057
2024-02-16T03:43:32.722Z,2.000000000000057
2024-02-16T03:44:32.769Z,2.000000000000057
2024-02-16T03:45:32.791Z,2.000000000000057
2024-02-16T03:46:32.836Z,2.000000000000057
2024-02-16T03:47:32.775Z,2.000000000000057
2024-02-16T03:48:33.053Z,2.000000000000057
2024-02-16T03:49:32.752Z,2.000000000000057
2024-02-16T03:50:34.095Z,2.000000000000057
2024-02-16T03:51:32.797Z,2.000000000000057
2024-02-16T03:52:32.755Z,2.000000000000057
2024-02-16T03:53:32.591Z,2.000000000000057
2024-02-16T03:54:32.780Z,2.000000000000057
2024-02-16T03:55:32.761Z,2.000000000000057
2024-02-16T03:56:32.675Z,2.000000000000057
2024-02-16T03:57:32.747Z,2.000000000000057
2024-02-16T03:58:32.648Z,2.000000000000057
2024-02-16T03:59:32.744Z,2.000000000000057
2024-02-16T04:00:32.852Z,2.000000000000057
2024-02-16T04:01:32.701Z,2.000000000000057
2024-02-16T04:02:32.622Z,2.000000000000057
2024-02-16T04:03:32.942Z,2.000000000000057
2024-02-16T04:04:32.688Z,2.000000000000057
2024-02-16T04:05:32.626Z,2.000000000000057
2024-02-16T04:06:32.686Z,2.000000000000057
2024-02-16T04:07:32.848Z,2.000000000000057
2024-02-16T04:08:32.643Z,2.000000000000057
2024-02-16T04:09:32.697Z,2.000000000000057
2024-02-16T04:10:32.682Z,2.000000000000057
2024-02-16T04:11:32.735Z,2.000000000000057
2024-02-16T04:12:32.686Z,2.000000000000057
2024-02-16T04:13:32.680Z,2.000000000000057
2024-02-16T04:14:32.637Z,2.000000000000057
2024-02-16T04:15:33.026Z,2.000000000000057
2024-02-16T04:16:32.680Z,2.000000000000057
2024-02-16T04:17:32.687Z,2.000000000000057
2024-02-16T04:18:32.840Z,2.000000000000057
2024-02-16T04:19:32.833Z,2.000000000000057
2024-02-16T04:20:32.747Z,2.000000000000057
2024-02-16T04:21:32.749Z,2.000000000000057
2024-02-16T04:22:32.608Z,2.000000000000057
2024-02-16T04:23:32.667Z,2.000000000000057
2024-02-16T04:24:32.853Z,2.000000000000057
2024-02-16T04:25:32.720Z,2.000000000000057
2024-02-16T04:26:32.626Z,2.000000000000057
2024-02-16T04:27:32.692Z,2.000000000000057
2024-02-16T04:28:32.634Z,2.000000000000057
2024-02-16T04:29:32.630Z,2.000000000000057
2024-02-16T04:30:32.652Z,2.000000000000057
2024-02-16T04:31:32.673Z,2.000000000000057
2024-02-16T04:32:32.640Z,2.000000000000057
2024-02-16T04:33:32.762Z,2.1111111111111427
2024-02-16T04:34:32.835Z,2.1111111111111427
2024-02-16T04:35:32.651Z,2.1111111111111427
2024-02-16T04:36:32.752Z,2.1111111111111427
2024-02-16T04:37:32.642Z,2.1111111111111427
2024-02-16T04:38:32.637Z,2.1111111111111427
2024-02-16T04:39:32.768Z,2.1111111111111427
2024-02-16T04:40:32.665Z,2.1111111111111427
2024-02-16T04:41:32.624Z,2.1111111111111427
2024-02-16T04:42:32.688Z,2.1111111111111427
2024-02-16T04:43:32.650Z,2.1111111111111427
2024-02-16T04:44:32.623Z,2.1111111111111427
2024-02-16T04:45:32.728Z,2.2222222222222854
2024-02-16T04:46:32.626Z,2.2222222222222854
2024-02-16T04:47:32.640Z,2.2222222222222854
2024-02-16T04:48:32.878Z,2.2222222222222854
2024-02-16T04:49:32.714Z,2.2222222222222854
2024-02-16T04:50:32.634Z,2.2222222222222854
2024-02-16T04:51:32.837Z,2.2222222222222854
2024-02-16T04:52:32.629Z,2.2222222222222854
2024-02-16T04:53:32.641Z,2.2222222222222854
2024-02-16T04:54:32.756Z,2.2222222222222854
2024-02-16T04:55:32.756Z,2.2222222222222854
2024-02-16T04:56:32.628Z,2.2222222222222854
2024-02-16T04:57:32.653Z,2.2222222222222854
2024-02-16T04:58:32.598Z,2.2222222222222854
2024-02-16T04:59:32.635Z,2.2222222222222854
2024-02-16T05:00:32.752Z,2.2777777777778283
2024-02-16T05:01:32.725Z,2.2777777777778283
2024-02-16T05:02:32.662Z,2.2777777777778283
2024-02-16T05:03:32.699Z,2.2777777777778283
2024-02-16T05:04:32.622Z,2.2777777777778283
2024-02-16T05:05:32.881Z,2.2777777777778283
2024-02-16T05:06:32.887Z,2.2777777777778283
2024-02-16T05:07:32.869Z,2.2777777777778283
2024-02-16T05:08:32.610Z,2.2777777777778283
2024-02-16T05:09:32.698Z,2.2777777777778283
2024-02-16T05:10:32.618Z,2.2777777777778283
2024-02-16T05:11:32.745Z,2.388888888888914
2024-02-16T05:12:32.833Z,2.388888888888914
2024-02-16T05:13:32.676Z,2.388888888888914
2024-02-16T05:14:32.678Z,2.388888888888914
2024-02-16T05:15:32.905Z,2.388888888888914
2024-02-16T05:16:32.600Z,2.388888888888914
2024-02-16T05:17:32.661Z,2.388888888888914
2024-02-16T05:18:32.683Z,2.388888888888914
2024-02-16T05:19:32.666Z,2.388888888888914
2024-02-16T05:20:32.633Z,2.388888888888914
2024-02-16T05:21:32.704Z,2.388888888888914
2024-02-16T05:22:32.607Z,2.388888888888914
2024-02-16T05:23:32.636Z,2.388888888888914
2024-02-16T05:24:32.700Z,2.388888888888914
2024-02-16T05:25:32.612Z,2.388888888888914
2024-02-16T05:26:32.683Z,2.388888888888914
2024-02-16T05:27:32.724Z,2.388888888888914
2024-02-16T05:28:32.603Z,2.388888888888914
2024-02-16T05:29:32.648Z,2.388888888888914
2024-02-16T05:30:32.700Z,2.388888888888914
2024-02-16T05:31:32.699Z,2.388888888888914
2024-02-16T05:32:32.676Z,2.388888888888914
2024-02-16T05:33:32.775Z,2.388888888888914
2024-02-16T05:34:32.936Z,2.388888888888914
2024-02-16T05:35:32.665Z,2.388888888888914
2024-02-16T05:36:32.670Z,2.388888888888914
2024-02-16T05:37:32.579Z,2.388888888888914
2024-02-16T05:38:32.626Z,2.500000000000057
2024-02-16T05:39:33.007Z,2.500000000000057
2024-02-16T05:40:32.644Z,2.500000000000057
2024-02-16T05:41:32.609Z,2.500000000000057
2024-02-16T05:42:32.804Z,2.500000000000057
2024-02-16T05:43:32.626Z,2.388888888888914
2024-02-16T05:44:32.641Z,2.388888888888914
2024-02-16T05:45:32.632Z,2.388888888888914
2024-02-16T05:46:32.636Z,2.388888888888914
2024-02-16T05:47:32.588Z,2.388888888888914
2024-02-16T05:48:32.685Z,2.388888888888914
2024-02-16T05:49:32.711Z,2.388888888888914
2024-02-16T05:50:32.870Z,2.388888888888914
2024-02-16T05:51:32.686Z,2.388888888888914
2024-02-16T05:52:32.594Z,2.388888888888914
2024-02-16T05:53:32.595Z,2.388888888888914
2024-02-16T05:54:35.016Z,2.388888888888914
2024-02-16T05:55:32.624Z,2.388888888888914
2024-02-16T05:56:32.609Z,2.388888888888914
2024-02-16T05:57:32.628Z,2.388888888888914
2024-02-16T05:58:32.607Z,2.388888888888914
2024-02-16T05:59:32.633Z,2.388888888888914
2024-02-16T06:00:32.649Z,2.500000000000057
2024-02-16T06:01:32.665Z,2.500000000000057
2024-02-16T06:02:32.622Z,2.500000000000057
2024-02-16T06:03:32.677Z,2.388888888888914
2024-02-16T06:04:32.672Z,2.388888888888914
2024-02-16T06:05:32.625Z,2.388888888888914
2024-02-16T06:06:32.651Z,2.388888888888914
2024-02-16T06:07:32.723Z,2.388888888888914
2024-02-16T06:08:32.673Z,2.388888888888914
2024-02-16T06:09:32.768Z,2.388888888888914
2024-02-16T06:10:32.585Z,2.388888888888914
2024-02-16T06:11:32.663Z,2.388888888888914
2024-02-16T06:12:32.863Z,2.388888888888914
2024-02-16T06:13:32.606Z,2.388888888888914
2024-02-16T06:14:32.597Z,2.388888888888914
2024-02-16T06:15:32.678Z,2.388888888888914
2024-02-16T06:16:32.608Z,2.388888888888914
2024-02-16T06:17:32.736Z,2.388888888888914
2024-02-16T06:18:32.697Z,2.388888888888914
2024-02-16T06:19:32.702Z,2.388888888888914
2024-02-16T06:20:32.664Z,2.388888888888914
2024-02-16T06:21:32.660Z,2.388888888888914
2024-02-16T06:22:32.602Z,2.388888888888914
2024-02-16T06:23:32.674Z,2.388888888888914
2024-02-16T06:24:32.624Z,2.388888888888914
2024-02-16T06:25:32.646Z,2.500000000000057
2024-02-16T06:26:32.618Z,2.500000000000057
2024-02-16T06:27:32.667Z,2.500000000000057
2024-02-16T06:28:32.620Z,2.500000000000057
2024-02-16T06:29:32.632Z,2.500000000000057
2024-02-16T06:30:32.730Z,2.500000000000057
2024-02-16T06:31:32.600Z,2.388888888888914
2024-02-16T06:32:32.692Z,2.388888888888914
2024-02-16T06:33:33.026Z,2.388888888888914
2024-02-16T06:34:32.857Z,2.388888888888914
2024-02-16T06:35:32.582Z,2.388888888888914
2024-02-16T06:36:32.714Z,2.388888888888914
2024-02-16T06:37:32.599Z,2.500000000000057
2024-02-16T06:38:32.629Z,2.500000000000057
2024-02-16T06:39:32.831Z,2.500000000000057
2024-02-16T06:40:32.568Z,2.500000000000057
2024-02-16T06:41:32.691Z,2.500000000000057
2024-02-16T06:42:32.741Z,2.500000000000057
2024-02-16T06:43:32.703Z,2.500000000000057
2024-02-16T06:44:32.626Z,2.500000000000057
2024-02-16T06:45:32.671Z,2.500000000000057
2024-02-16T06:46:32.584Z,2.6111111111111427
2024-02-16T06:47:32.601Z,2.6111111111111427
2024-02-16T06:48:32.725Z,2.6111111111111427
2024-02-16T06:49:32.702Z,2.500000000000057
2024-02-16T06:50:32.692Z,2.500000000000057
2024-02-16T06:51:32.616Z,2.6111111111111427
2024-02-16T06:52:32.606Z,2.6111111111111427
2024-02-16T06:53:32.638Z,2.6111111111111427
2024-02-16T06:54:32.715Z,2.6111111111111427
2024-02-16T06:55:32.607Z,2.6111111111111427
2024-02-16T06:56:32.661Z,2.6111111111111427
2024-02-16T06:57:32.691Z,2.6111111111111427
2024-02-16T06:58:32.626Z,2.6111111111111427
2024-02-16T06:59:32.610Z,2.6111111111111427
2024-02-16T07:00:32.635Z,2.7222222222222285
2024-02-16T07:01:32.692Z,2.7222222222222285
2024-02-16T07:02:32.649Z,2.7222222222222285
2024-02-16T07:03:32.710Z,2.7222222222222285
2024-02-16T07:04:32.697Z,2.7222222222222285
2024-02-16T07:05:34.836Z,2.7222222222222285
2024-02-16T07:06:32.715Z,2.7222222222222285
2024-02-16T07:07:32.573Z,2.7222222222222285
2024-02-16T07:08:32.584Z,2.7222222222222285
2024-02-16T07:09:32.693Z,2.7777777777778283
2024-02-16T07:10:32.645Z,2.7777777777778283
2024-02-16T07:11:32.676Z,2.7777777777778283
2024-02-16T07:12:32.646Z,2.7222222222222285
2024-02-16T07:13:32.650Z,2.7222222222222285
2024-02-16T07:14:32.650Z,2.7222222222222285
2024-02-16T07:15:32.638Z,2.7777777777778283
2024-02-16T07:16:32.644Z,2.7777777777778283
2024-02-16T07:17:32.743Z,2.7777777777778283
2024-02-16T07:18:32.724Z,2.7777777777778283
2024-02-16T07:19:32.682Z,2.7777777777778283
2024-02-16T07:20:32.619Z,2.7777777777778283
2024-02-16T07:21:32.654Z,2.7777777777778283
2024-02-16T07:22:32.616Z,2.7777777777778283
2024-02-16T07:23:32.580Z,2.7777777777778283
2024-02-16T07:24:32.600Z,2.7777777777778283
2024-02-16T07:25:32.620Z,2.7777777777778283
2024-02-16T07:26:32.598Z,2.7777777777778283
2024-02-16T07:27:32.663Z,2.7777777777778283
2024-02-16T07:28:32.558Z,2.7777777777778283
2024-02-16T07:29:32.645Z,2.7777777777778283
2024-02-16T07:31:32.692Z,2.7777777777778283
2024-02-16T07:32:32.581Z,2.7777777777778283
2024-02-16T07:33:32.740Z,2.7777777777778283
2024-02-16T07:34:32.792Z,2.7777777777778283
2024-02-16T07:35:32.677Z,2.7777777777778283
2024-02-16T07:36:32.667Z,2.7777777777778283
2024-02-16T07:37:32.579Z,2.7777777777778283
2024-02-16T07:38:32.616Z,2.7777777777778283
2024-02-16T07:39:32.721Z,2.7777777777778283
2024-02-16T07:40:32.615Z,2.888888888888914
2024-02-16T07:41:32.653Z,2.888888888888914
2024-02-16T07:42:32.703Z,2.888888888888914
2024-02-16T07:43:32.654Z,2.888888888888914
2024-02-16T07:44:32.671Z,2.888888888888914
2024-02-16T07:45:32.762Z,2.888888888888914
2024-02-16T07:46:36.182Z,2.888888888888914
2024-02-16T07:47:32.762Z,2.888888888888914
2024-02-16T07:48:32.951Z,3.000000000000057
2024-02-16T07:49:32.720Z,3.000000000000057
2024-02-16T07:50:32.590Z,3.000000000000057
2024-02-16T07:51:32.885Z,3.1111111111111427
2024-02-16T07:52:32.571Z,3.1111111111111427
2024-02-16T07:53:32.574Z,3.1111111111111427
2024-02-16T07:54:32.736Z,3.2222222222222854
2024-02-16T07:55:32.656Z,3.2222222222222854
2024-02-16T07:56:32.587Z,3.2222222222222854
2024-02-16T07:57:32.657Z,3.2222222222222854
2024-02-16T07:58:32.665Z,3.2777777777778283
2024-02-16T07:59:32.695Z,3.2777777777778283
2024-02-16T08:00:32.750Z,3.2777777777778283
2024-02-16T08:01:32.631Z,3.2777777777778283
2024-02-16T08:02:32.554Z,3.2777777777778283
2024-02-16T08:03:32.636Z,3.2777777777778283
2024-02-16T08:04:32.616Z,3.2777777777778283
2024-02-16T08:05:32.721Z,3.2777777777778283
2024-02-16T08:06:32.734Z,3.388888888888971
2024-02-16T08:07:32.745Z,3.388888888888971
2024-02-16T08:08:32.592Z,3.388888888888971
2024-02-16T08:09:32.585Z,3.388888888888971
2024-02-16T08:10:32.576Z,3.388888888888971
2024-02-16T08:11:32.638Z,3.388888888888971
2024-02-16T08:12:32.761Z,3.388888888888971
2024-02-16T08:13:32.660Z,3.500000000000057
2024-02-16T08:14:32.693Z,3.500000000000057
2024-02-16T08:15:32.842Z,3.500000000000057
2024-02-16T08:16:32.699Z,3.500000000000057
2024-02-16T08:17:32.764Z,3.500000000000057
2024-02-16T08:18:32.837Z,3.500000000000057
2024-02-16T08:19:32.920Z,3.6111111111111427
2024-02-16T08:20:32.602Z,3.6111111111111427
2024-02-16T08:21:32.665Z,3.6111111111111427
2024-02-16T08:22:32.586Z,3.6111111111111427
2024-02-16T08:23:32.620Z,3.7222222222222854
2024-02-16T08:24:32.706Z,3.7222222222222854
2024-02-16T08:25:32.567Z,3.7222222222222854
2024-02-16T08:26:32.562Z,3.7222222222222854
2024-02-16T08:27:32.681Z,3.7222222222222854
2024-02-16T08:28:32.663Z,3.7222222222222854
2024-02-16T08:29:32.582Z,3.7777777777778283
2024-02-16T08:30:32.637Z,3.7777777777778283
2024-02-16T08:31:32.684Z,3.7777777777778283
2024-02-16T08:32:32.718Z,3.7777777777778283
2024-02-16T08:33:32.780Z,3.7777777777778283
2024-02-16T08:34:32.731Z,3.7777777777778283
2024-02-16T08:35:32.624Z,3.7777777777778283
2024-02-16T08:36:32.736Z,3.888888888888914
2024-02-16T08:37:32.775Z,3.888888888888914
2024-02-16T08:38:32.600Z,3.888888888888914
2024-02-16T08:39:32.625Z,3.888888888888914
2024-02-16T08:40:32.575Z,3.888888888888914
2024-02-16T08:41:32.664Z,3.888888888888914
2024-02-16T08:42:32.642Z,3.888888888888914
2024-02-16T08:43:32.568Z,3.888888888888914
2024-02-16T08:44:32.571Z,3.888888888888914
2024-02-16T08:45:32.677Z,3.888888888888914
2024-02-16T08:46:32.600Z,3.888888888888914
2024-02-16T08:47:32.592Z,3.888888888888914
2024-02-16T08:48:32.699Z,3.888888888888914
2024-02-16T08:49:32.791Z,3.888888888888914
2024-02-16T08:50:32.601Z,3.888888888888914
2024-02-16T08:51:32.700Z,4.000000000000057
2024-02-16T08:52:32.575Z,4.000000000000057
2024-02-16T08:53:32.596Z,4.000000000000057
2024-02-16T08:54:32.648Z,4.000000000000057
2024-02-16T08:55:32.574Z,4.000000000000057
2024-02-16T08:56:32.564Z,4.000000000000057
2024-02-16T08:57:32.903Z,4.000000000000057
2024-02-16T08:58:32.581Z,4.000000000000057
2024-02-16T08:59:32.574Z,4.000000000000057
2024-02-16T09:00:32.690Z,4.000000000000057
2024-02-16T09:01:32.653Z,4.000000000000057
2024-02-16T09:02:32.603Z,4.000000000000057
2024-02-16T09:03:32.666Z,4.000000000000057
2024-02-16T09:04:32.626Z,4.000000000000057
2024-02-16T09:05:32.605Z,4.000000000000057
2024-02-16T09:06:32.728Z,4.000000000000057
2024-02-16T09:07:32.576Z,4.111111111111143
2024-02-16T09:08:32.562Z,4.000000000000057
2024-02-16T09:09:32.752Z,4.111111111111143
2024-02-16T09:10:32.613Z,4.111111111111143
2024-02-16T09:11:32.628Z,4.111111111111143